sensor_id;sensor_type;location;lat;lon;timestamp;temperature;humidity
65396;HTU21D;52004;45.136;39.010;2023-04-03T00:02:08;12.27;53.70
65396;HTU21D;52004;45.136;39.010;2023-04-03T00:04:37;12.30;53.70
65396;HTU21D;52004;45.136;39.010;2023-04-03T00:07:03;12.32;53.71
65396;HTU21D;52004;45.136;39.010;2023-04-03T00:09:29;12.33;53.74
65396;HTU21D;52004;45.136;39.010;2023-04-03T00:11:55;12.37;53.76
65396;HTU21D;52004;45.136;39.010;2023-04-03T00:14:20;12.40;53.80
65396;HTU21D;52004;45.136;39.010;2023-04-03T00:16:46;12.43;53.79
65396;HTU21D;52004;45.136;39.010;2023-04-03T00:19:12;12.46;53.80
65396;HTU21D;52004;45.136;39.010;2023-04-03T00:21:38;12.50;53.81
65396;HTU21D;52004;45.136;39.010;2023-04-03T00:24:04;12.55;53.81
65396;HTU21D;52004;45.136;39.010;2023-04-03T00:26:30;12.58;53.82
65396;HTU21D;52004;45.136;39.010;2023-04-03T00:28:56;12.60;53.84
65396;HTU21D;52004;45.136;39.010;2023-04-03T00:31:22;12.64;53.81
65396;HTU21D;52004;45.136;39.010;2023-04-03T00:33:48;12.67;53.81
65396;HTU21D;52004;45.136;39.010;2023-04-03T00:36:14;12.70;53.80
65396;HTU21D;52004;45.136;39.010;2023-04-03T00:38:40;12.72;53.77
65396;HTU21D;52004;45.136;39.010;2023-04-03T00:41:06;12.75;53.78
65396;HTU21D;52004;45.136;39.010;2023-04-03T00:43:32;12.76;53.78
65396;HTU21D;52004;45.136;39.010;2023-04-03T00:45:58;12.76;53.75
65396;HTU21D;52004;45.136;39.010;2023-04-03T00:48:31;12.78;53.75
65396;HTU21D;52004;45.136;39.010;2023-04-03T00:50:58;12.79;53.76
65396;HTU21D;52004;45.136;39.010;2023-04-03T00:53:31;12.80;53.75
65396;HTU21D;52004;45.136;39.010;2023-04-03T00:55:59;12.80;53.73
65396;HTU21D;52004;45.136;39.010;2023-04-03T00:58:31;12.81;53.74
65396;HTU21D;52004;45.136;39.010;2023-04-03T01:01:00;12.81;53.74
65396;HTU21D;52004;45.136;39.010;2023-04-03T01:03:30;12.82;53.72
65396;HTU21D;52004;45.136;39.010;2023-04-03T01:06:00;12.82;53.74
65396;HTU21D;52004;45.136;39.010;2023-04-03T01:08:27;12.84;53.75
65396;HTU21D;52004;45.136;39.010;2023-04-03T01:10:54;12.84;53.73
65396;HTU21D;52004;45.136;39.010;2023-04-03T01:13:25;12.85;53.72
65396;HTU21D;52004;45.136;39.010;2023-04-03T01:15:51;12.84;53.74
65396;HTU21D;52004;45.136;39.010;2023-04-03T01:18:18;12.85;53.75
65396;HTU21D;52004;45.136;39.010;2023-04-03T01:26:16;12.85;53.77
65396;HTU21D;52004;45.136;39.010;2023-04-03T01:28:44;12.86;53.78
65396;HTU21D;52004;45.136;39.010;2023-04-03T01:34:01;12.87;53.80
65396;HTU21D;52004;45.136;39.010;2023-04-03T01:36:30;12.87;53.81
65396;HTU21D;52004;45.136;39.010;2023-04-03T01:38:58;12.87;53.81
65396;HTU21D;52004;45.136;39.010;2023-04-03T01:41:25;12.86;53.81
65396;HTU21D;52004;45.136;39.010;2023-04-03T01:43:55;12.87;53.87
65396;HTU21D;52004;45.136;39.010;2023-04-03T01:46:21;12.87;53.86
65396;HTU21D;52004;45.136;39.010;2023-04-03T01:48:47;12.87;53.88
65396;HTU21D;52004;45.136;39.010;2023-04-03T01:51:13;12.87;53.86
65396;HTU21D;52004;45.136;39.010;2023-04-03T01:53:39;12.88;53.86
65396;HTU21D;52004;45.136;39.010;2023-04-03T01:56:06;12.86;53.86
65396;HTU21D;52004;45.136;39.010;2023-04-03T01:58:33;12.87;53.86
65396;HTU21D;52004;45.136;39.010;2023-04-03T02:00:59;12.86;53.86
65396;HTU21D;52004;45.136;39.010;2023-04-03T02:03:25;12.85;53.85
65396;HTU21D;52004;45.136;39.010;2023-04-03T02:05:52;12.84;53.88
65396;HTU21D;52004;45.136;39.010;2023-04-03T02:08:18;12.82;53.91
65396;HTU21D;52004;45.136;39.010;2023-04-03T02:10:46;12.81;53.92
65396;HTU21D;52004;45.136;39.010;2023-04-03T02:13:12;12.81;53.93
65396;HTU21D;52004;45.136;39.010;2023-04-03T02:15:38;12.80;53.99
65396;HTU21D;52004;45.136;39.010;2023-04-03T02:18:05;12.80;53.98
65396;HTU21D;52004;45.136;39.010;2023-04-03T02:20:31;12.82;54.01
65396;HTU21D;52004;45.136;39.010;2023-04-03T02:22:57;12.82;54.01
65396;HTU21D;52004;45.136;39.010;2023-04-03T02:25:24;12.82;54.03
65396;HTU21D;52004;45.136;39.010;2023-04-03T02:27:50;12.82;54.06
65396;HTU21D;52004;45.136;39.010;2023-04-03T02:30:16;12.84;54.08
65396;HTU21D;52004;45.136;39.010;2023-04-03T02:32:42;12.84;54.08
65396;HTU21D;52004;45.136;39.010;2023-04-03T02:35:09;12.81;54.16
65396;HTU21D;52004;45.136;39.010;2023-04-03T02:37:35;12.80;54.25
65396;HTU21D;52004;45.136;39.010;2023-04-03T02:40:02;12.80;54.33
65396;HTU21D;52004;45.136;39.010;2023-04-03T02:42:28;12.79;54.41
65396;HTU21D;52004;45.136;39.010;2023-04-03T02:44:54;12.78;54.43
65396;HTU21D;52004;45.136;39.010;2023-04-03T02:47:21;12.76;54.52
65396;HTU21D;52004;45.136;39.010;2023-04-03T02:49:47;12.74;54.64
65396;HTU21D;52004;45.136;39.010;2023-04-03T02:52:13;12.73;54.73
65396;HTU21D;52004;45.136;39.010;2023-04-03T02:54:39;12.73;54.79
65396;HTU21D;52004;45.136;39.010;2023-04-03T02:57:07;12.72;54.87
65396;HTU21D;52004;45.136;39.010;2023-04-03T02:59:38;12.69;54.99
65396;HTU21D;52004;45.136;39.010;2023-04-03T03:02:08;12.63;55.12
65396;HTU21D;52004;45.136;39.010;2023-04-03T03:04:34;12.56;55.21
65396;HTU21D;52004;45.136;39.010;2023-04-03T03:07:01;12.49;55.36
65396;HTU21D;52004;45.136;39.010;2023-04-03T03:09:28;12.40;55.55
65396;HTU21D;52004;45.136;39.010;2023-04-03T03:11:55;12.34;55.68
65396;HTU21D;52004;45.136;39.010;2023-04-03T03:14:21;12.30;55.77
65396;HTU21D;52004;45.136;39.010;2023-04-03T03:16:47;12.23;55.93
65396;HTU21D;52004;45.136;39.010;2023-04-03T03:19:13;12.17;56.10
65396;HTU21D;52004;45.136;39.010;2023-04-03T03:21:39;12.12;56.29
65396;HTU21D;52004;45.136;39.010;2023-04-03T03:24:06;12.08;56.40
65396;HTU21D;52004;45.136;39.010;2023-04-03T03:26:32;12.07;56.38
65396;HTU21D;52004;45.136;39.010;2023-04-03T03:28:58;12.05;56.45
65396;HTU21D;52004;45.136;39.010;2023-04-03T03:31:25;12.01;56.60
65396;HTU21D;52004;45.136;39.010;2023-04-03T03:33:51;11.98;56.64
65396;HTU21D;52004;45.136;39.010;2023-04-03T03:36:18;11.90;56.87
65396;HTU21D;52004;45.136;39.010;2023-04-03T03:38:44;11.87;56.97
65396;HTU21D;52004;45.136;39.010;2023-04-03T03:41:10;11.85;57.12
65396;HTU21D;52004;45.136;39.010;2023-04-03T03:43:36;11.86;57.19
65396;HTU21D;52004;45.136;39.010;2023-04-03T03:46:04;11.86;57.28
65396;HTU21D;52004;45.136;39.010;2023-04-03T03:48:30;11.87;57.35
65396;HTU21D;52004;45.136;39.010;2023-04-03T03:50:56;11.84;57.42
65396;HTU21D;52004;45.136;39.010;2023-04-03T03:53:26;11.83;57.60
65396;HTU21D;52004;45.136;39.010;2023-04-03T03:55:56;11.84;57.73
65396;HTU21D;52004;45.136;39.010;2023-04-03T03:58:24;11.82;57.81
65396;HTU21D;52004;45.136;39.010;2023-04-03T04:00:51;11.82;57.92
65396;HTU21D;52004;45.136;39.010;2023-04-03T04:03:17;11.81;58.16
65396;HTU21D;52004;45.136;39.010;2023-04-03T04:05:46;11.82;58.22
65396;HTU21D;52004;45.136;39.010;2023-04-03T04:08:12;11.83;58.31
65396;HTU21D;52004;45.136;39.010;2023-04-03T04:11:03;11.85;58.38
65396;HTU21D;52004;45.136;39.010;2023-04-03T04:13:29;11.83;58.58
65396;HTU21D;52004;45.136;39.010;2023-04-03T04:15:55;11.81;58.80
65396;HTU21D;52004;45.136;39.010;2023-04-03T04:18:21;11.82;58.80
65396;HTU21D;52004;45.136;39.010;2023-04-03T04:20:48;11.82;58.93
65396;HTU21D;52004;45.136;39.010;2023-04-03T04:23:17;11.82;58.94
65396;HTU21D;52004;45.136;39.010;2023-04-03T04:25:47;11.83;58.95
65396;HTU21D;52004;45.136;39.010;2023-04-03T04:28:14;11.81;59.07
65396;HTU21D;52004;45.136;39.010;2023-04-03T04:30:40;11.79;59.22
65396;HTU21D;52004;45.136;39.010;2023-04-03T04:33:06;11.82;59.26
65396;HTU21D;52004;45.136;39.010;2023-04-03T04:35:33;11.83;59.29
65396;HTU21D;52004;45.136;39.010;2023-04-03T04:38:00;11.83;59.41
65396;HTU21D;52004;45.136;39.010;2023-04-03T04:40:27;11.85;59.51
65396;HTU21D;52004;45.136;39.010;2023-04-03T04:42:53;11.85;59.61
65396;HTU21D;52004;45.136;39.010;2023-04-03T04:45:19;11.87;59.56
65396;HTU21D;52004;45.136;39.010;2023-04-03T04:47:46;0.00;59.57
65396;HTU21D;52004;45.136;39.010;2023-04-03T04:50:13;11.90;59.57
65396;HTU21D;52004;45.136;39.010;2023-04-03T04:52:39;0.00;59.67
65396;HTU21D;52004;45.136;39.010;2023-04-03T04:55:07;0.00;59.61
65396;HTU21D;52004;45.136;39.010;2023-04-03T04:57:33;11.88;59.86
65396;HTU21D;52004;45.136;39.010;2023-04-03T05:00:00;11.88;59.84
65396;HTU21D;52004;45.136;39.010;2023-04-03T05:02:26;11.87;59.93
65396;HTU21D;52004;45.136;39.010;2023-04-03T05:04:53;11.87;59.99
65396;HTU21D;52004;45.136;39.010;2023-04-03T05:07:24;11.84;60.16
65396;HTU21D;52004;45.136;39.010;2023-04-03T05:09:51;11.85;60.25
65396;HTU21D;52004;45.136;39.010;2023-04-03T05:12:17;11.84;60.28
65396;HTU21D;52004;45.136;39.010;2023-04-03T05:14:50;11.84;60.38
65396;HTU21D;52004;45.136;39.010;2023-04-03T05:17:16;11.84;60.49
65396;HTU21D;52004;45.136;39.010;2023-04-03T05:19:47;11.86;60.49
65396;HTU21D;52004;45.136;39.010;2023-04-03T05:22:15;11.85;60.57
65396;HTU21D;52004;45.136;39.010;2023-04-03T05:24:41;11.85;60.67
65396;HTU21D;52004;45.136;39.010;2023-04-03T05:27:08;11.87;60.77
65396;HTU21D;52004;45.136;39.010;2023-04-03T05:29:38;11.91;60.79
65396;HTU21D;52004;45.136;39.010;2023-04-03T05:32:04;11.91;60.83
65396;HTU21D;52004;45.136;39.010;2023-04-03T05:34:30;11.93;60.84
65396;HTU21D;52004;45.136;39.010;2023-04-03T05:36:56;11.98;60.86
65396;HTU21D;52004;45.136;39.010;2023-04-03T05:39:22;11.98;60.93
65396;HTU21D;52004;45.136;39.010;2023-04-03T05:41:49;12.02;60.97
65396;HTU21D;52004;45.136;39.010;2023-04-03T05:44:15;12.03;61.09
65396;HTU21D;52004;45.136;39.010;2023-04-03T05:46:43;12.07;61.13
65396;HTU21D;52004;45.136;39.010;2023-04-03T05:49:10;12.11;61.17
65396;HTU21D;52004;45.136;39.010;2023-04-03T05:51:37;12.14;61.19
65396;HTU21D;52004;45.136;39.010;2023-04-03T05:56:43;12.19;61.33
65396;HTU21D;52004;45.136;39.010;2023-04-03T05:59:09;12.22;61.30
65396;HTU21D;52004;45.136;39.010;2023-04-03T06:01:36;12.25;61.33
65396;HTU21D;52004;45.136;39.010;2023-04-03T06:04:03;12.23;61.36
65396;HTU21D;52004;45.136;39.010;2023-04-03T06:09:14;12.31;61.44
65396;HTU21D;52004;45.136;39.010;2023-04-03T06:11:40;12.35;61.47
65396;HTU21D;52004;45.136;39.010;2023-04-03T06:14:07;12.40;61.47
65396;HTU21D;52004;45.136;39.010;2023-04-03T06:16:33;12.44;61.47
65396;HTU21D;52004;45.136;39.010;2023-04-03T06:18:59;12.47;61.45
65396;HTU21D;52004;45.136;39.010;2023-04-03T06:21:27;12.48;61.44
65396;HTU21D;52004;45.136;39.010;2023-04-03T06:23:52;12.46;61.50
65396;HTU21D;52004;45.136;39.010;2023-04-03T06:26:18;12.47;61.68
65396;HTU21D;52004;45.136;39.010;2023-04-03T06:28:44;12.48;61.67
65396;HTU21D;52004;45.136;39.010;2023-04-03T06:31:10;12.51;61.71
65396;HTU21D;52004;45.136;39.010;2023-04-03T06:33:36;12.53;61.76
65396;HTU21D;52004;45.136;39.010;2023-04-03T06:36:05;12.55;61.70
65396;HTU21D;52004;45.136;39.010;2023-04-03T06:38:31;12.55;61.85
65396;HTU21D;52004;45.136;39.010;2023-04-03T06:40:57;12.55;61.92
65396;HTU21D;52004;45.136;39.010;2023-04-03T06:43:23;12.56;62.08
65396;HTU21D;52004;45.136;39.010;2023-04-03T06:45:51;12.56;61.99
65396;HTU21D;52004;45.136;39.010;2023-04-03T06:48:17;12.53;62.24
65396;HTU21D;52004;45.136;39.010;2023-04-03T06:50:43;12.52;62.24
65396;HTU21D;52004;45.136;39.010;2023-04-03T06:53:09;12.55;62.34
65396;HTU21D;52004;45.136;39.010;2023-04-03T06:55:35;0.00;62.37
65396;HTU21D;52004;45.136;39.010;2023-04-03T06:58:01;12.56;62.35
65396;HTU21D;52004;45.136;39.010;2023-04-03T07:00:27;12.59;62.29
65396;HTU21D;52004;45.136;39.010;2023-04-03T07:02:53;12.56;62.34
65396;HTU21D;52004;45.136;39.010;2023-04-03T07:05:19;12.57;62.30
65396;HTU21D;52004;45.136;39.010;2023-04-03T07:07:45;12.57;62.35
65396;HTU21D;52004;45.136;39.010;2023-04-03T07:10:11;12.58;62.34
65396;HTU21D;52004;45.136;39.010;2023-04-03T07:12:38;12.57;62.35
65396;HTU21D;52004;45.136;39.010;2023-04-03T07:15:04;12.53;62.37
65396;HTU21D;52004;45.136;39.010;2023-04-03T07:17:56;12.49;62.46
65396;HTU21D;52004;45.136;39.010;2023-04-03T07:20:21;12.48;62.51
65396;HTU21D;52004;45.136;39.010;2023-04-03T07:22:47;12.46;62.60
65396;HTU21D;52004;45.136;39.010;2023-04-03T07:25:13;12.45;62.62
65396;HTU21D;52004;45.136;39.010;2023-04-03T07:27:39;12.45;62.68
65396;HTU21D;52004;45.136;39.010;2023-04-03T07:30:05;12.47;62.64
65396;HTU21D;52004;45.136;39.010;2023-04-03T07:32:32;0.00;62.64
65396;HTU21D;52004;45.136;39.010;2023-04-03T07:34:58;12.48;62.67
65396;HTU21D;52004;45.136;39.010;2023-04-03T07:37:23;12.49;62.70
65396;HTU21D;52004;45.136;39.010;2023-04-03T07:39:49;12.48;62.73
65396;HTU21D;52004;45.136;39.010;2023-04-03T07:42:16;12.49;62.78
65396;HTU21D;52004;45.136;39.010;2023-04-03T07:44:42;0.00;62.76
65396;HTU21D;52004;45.136;39.010;2023-04-03T07:47:08;12.47;62.82
65396;HTU21D;52004;45.136;39.010;2023-04-03T07:49:34;12.49;62.94
65396;HTU21D;52004;45.136;39.010;2023-04-03T07:52:03;12.48;62.92
65396;HTU21D;52004;45.136;39.010;2023-04-03T07:54:29;12.49;62.90
65396;HTU21D;52004;45.136;39.010;2023-04-03T07:56:55;12.50;63.01
65396;HTU21D;52004;45.136;39.010;2023-04-03T07:59:22;12.51;63.05
65396;HTU21D;52004;45.136;39.010;2023-04-03T08:01:48;12.57;63.00
65396;HTU21D;52004;45.136;39.010;2023-04-03T08:04:14;12.57;63.05
65396;HTU21D;52004;45.136;39.010;2023-04-03T08:07:05;12.59;63.03
65396;HTU21D;52004;45.136;39.010;2023-04-03T08:09:31;12.60;63.11
65396;HTU21D;52004;45.136;39.010;2023-04-03T08:11:57;12.62;63.15
65396;HTU21D;52004;45.136;39.010;2023-04-03T08:14:23;12.62;63.15
65396;HTU21D;52004;45.136;39.010;2023-04-03T08:16:49;12.64;63.22
65396;HTU21D;52004;45.136;39.010;2023-04-03T08:19:15;12.65;63.21
65396;HTU21D;52004;45.136;39.010;2023-04-03T08:21:43;12.66;63.34
65396;HTU21D;52004;45.136;39.010;2023-04-03T08:24:10;12.67;63.40
65396;HTU21D;52004;45.136;39.010;2023-04-03T08:26:36;12.72;63.50
65396;HTU21D;52004;45.136;39.010;2023-04-03T08:29:03;12.73;63.51
65396;HTU21D;52004;45.136;39.010;2023-04-03T08:31:29;12.75;63.58
65396;HTU21D;52004;45.136;39.010;2023-04-03T08:33:56;12.74;63.62
65396;HTU21D;52004;45.136;39.010;2023-04-03T08:36:26;12.76;63.62
65396;HTU21D;52004;45.136;39.010;2023-04-03T08:38:53;12.76;63.79
65396;HTU21D;52004;45.136;39.010;2023-04-03T08:46:36;12.72;64.00
65396;HTU21D;52004;45.136;39.010;2023-04-03T08:49:03;12.72;63.95
65396;HTU21D;52004;45.136;39.010;2023-04-03T08:51:30;12.70;64.02
65396;HTU21D;52004;45.136;39.010;2023-04-03T08:54:31;12.70;64.26
65396;HTU21D;52004;45.136;39.010;2023-04-03T08:56:59;12.67;64.23
65396;HTU21D;52004;45.136;39.010;2023-04-03T08:59:28;12.71;64.34
65396;HTU21D;52004;45.136;39.010;2023-04-03T09:01:54;12.72;64.41
65396;HTU21D;52004;45.136;39.010;2023-04-03T09:04:21;12.74;64.42
65396;HTU21D;52004;45.136;39.010;2023-04-03T09:06:52;12.77;64.42
65396;HTU21D;52004;45.136;39.010;2023-04-03T09:09:27;12.84;64.37
65396;HTU21D;52004;45.136;39.010;2023-04-03T09:14:46;12.97;64.30
65396;HTU21D;52004;45.136;39.010;2023-04-03T09:22:31;13.18;64.37
65396;HTU21D;52004;45.136;39.010;2023-04-03T09:27:27;13.33;64.30
65396;HTU21D;52004;45.136;39.010;2023-04-03T09:29:53;13.40;64.30
65396;HTU21D;52004;45.136;39.010;2023-04-03T09:34:52;13.60;64.29
65396;HTU21D;52004;45.136;39.010;2023-04-03T09:37:39;13.77;64.50
65396;HTU21D;52004;45.136;39.010;2023-04-03T09:40:05;14.01;64.67
65396;HTU21D;52004;45.136;39.010;2023-04-03T09:42:31;14.27;64.76
65396;HTU21D;52004;45.136;39.010;2023-04-03T09:44:59;14.47;64.61
65396;HTU21D;52004;45.136;39.010;2023-04-03T09:47:29;14.63;64.56
65396;HTU21D;52004;45.136;39.010;2023-04-03T09:52:46;14.83;64.29
65396;HTU21D;52004;45.136;39.010;2023-04-03T09:55:44;14.92;64.30
65396;HTU21D;52004;45.136;39.010;2023-04-03T09:58:23;15.07;64.56
65396;HTU21D;52004;45.136;39.010;2023-04-03T10:00:59;15.32;64.61
65396;HTU21D;52004;45.136;39.010;2023-04-03T10:03:27;15.61;64.57
65396;HTU21D;52004;45.136;39.010;2023-04-03T10:05:53;15.82;64.24
65396;HTU21D;52004;45.136;39.010;2023-04-03T10:08:28;15.93;64.09
65396;HTU21D;52004;45.136;39.010;2023-04-03T10:13:55;16.13;64.16
65396;HTU21D;52004;45.136;39.010;2023-04-03T10:21:55;16.51;63.88
65396;HTU21D;52004;45.136;39.010;2023-04-03T10:24:25;16.64;63.68
65396;HTU21D;52004;45.136;39.010;2023-04-03T10:34:31;17.11;63.07
65396;HTU21D;52004;45.136;39.010;2023-04-03T10:37:08;17.22;63.12
65396;HTU21D;52004;45.136;39.010;2023-04-03T10:39:46;17.40;63.27
65396;HTU21D;52004;45.136;39.010;2023-04-03T10:42:18;17.53;62.97
65396;HTU21D;52004;45.136;39.010;2023-04-03T10:47:20;17.40;62.56
65396;HTU21D;52004;45.136;39.010;2023-04-03T10:52:29;17.33;62.85
65396;HTU21D;52004;45.136;39.010;2023-04-03T10:57:38;17.70;62.73
65396;HTU21D;52004;45.136;39.010;2023-04-03T11:00:07;17.80;62.37
65396;HTU21D;52004;45.136;39.010;2023-04-03T11:08:05;18.04;62.21
65396;HTU21D;52004;45.136;39.010;2023-04-03T11:13:06;18.04;62.03
65396;HTU21D;52004;45.136;39.010;2023-04-03T11:15:37;18.11;61.97
65396;HTU21D;52004;45.136;39.010;2023-04-03T11:18:08;18.17;61.83
65396;HTU21D;52004;45.136;39.010;2023-04-03T11:20:35;18.18;61.78
65396;HTU21D;52004;45.136;39.010;2023-04-03T11:23:05;18.18;61.70
65396;HTU21D;52004;45.136;39.010;2023-04-03T11:25:33;18.22;61.81
65396;HTU21D;52004;45.136;39.010;2023-04-03T11:28:00;18.25;61.73
65396;HTU21D;52004;45.136;39.010;2023-04-03T11:35:22;0.00;61.56
65396;HTU21D;52004;45.136;39.010;2023-04-03T11:37:49;18.46;61.44
65396;HTU21D;52004;45.136;39.010;2023-04-03T11:42:49;18.47;61.47
65396;HTU21D;52004;45.136;39.010;2023-04-03T11:47:53;18.62;61.18
65396;HTU21D;52004;45.136;39.010;2023-04-03T12:08:28;18.12;60.87
65396;HTU21D;52004;45.136;39.010;2023-04-03T12:21:23;18.12;61.18
65396;HTU21D;52004;45.136;39.010;2023-04-03T12:26:22;18.23;61.17
65396;HTU21D;52004;45.136;39.010;2023-04-03T12:28:51;18.30;60.99
65396;HTU21D;52004;45.136;39.010;2023-04-03T12:31:19;18.23;60.79
65396;HTU21D;52004;45.136;39.010;2023-04-03T12:39:22;17.90;60.93
65396;HTU21D;52004;45.136;39.010;2023-04-03T12:44:25;17.72;60.81
65396;HTU21D;52004;45.136;39.010;2023-04-03T12:46:52;17.61;60.92
65396;HTU21D;52004;45.136;39.010;2023-04-03T12:49:38;17.58;61.02
65396;HTU21D;52004;45.136;39.010;2023-04-03T12:52:16;17.58;61.02
65396;HTU21D;52004;45.136;39.010;2023-04-03T12:54:44;17.54;60.90
65396;HTU21D;52004;45.136;39.010;2023-04-03T12:57:32;17.47;60.95
65396;HTU21D;52004;45.136;39.010;2023-04-03T12:59:58;17.45;61.02
65396;HTU21D;52004;45.136;39.010;2023-04-03T13:02:28;17.45;61.05
65396;HTU21D;52004;45.136;39.010;2023-04-03T13:04:55;17.40;60.99
65396;HTU21D;52004;45.136;39.010;2023-04-03T13:07:25;17.38;61.06
65396;HTU21D;52004;45.136;39.010;2023-04-03T13:09:58;17.38;61.15
65396;HTU21D;52004;45.136;39.010;2023-04-03T13:12:25;17.45;61.13
65396;HTU21D;52004;45.136;39.010;2023-04-03T13:14:55;17.46;61.00
65396;HTU21D;52004;45.136;39.010;2023-04-03T13:17:22;17.41;60.89
65396;HTU21D;52004;45.136;39.010;2023-04-03T13:19:48;17.35;60.92
65396;HTU21D;52004;45.136;39.010;2023-04-03T13:22:25;17.31;60.93
65396;HTU21D;52004;45.136;39.010;2023-04-03T13:24:52;17.25;60.90
65396;HTU21D;52004;45.136;39.010;2023-04-03T13:27:19;17.20;60.96
65396;HTU21D;52004;45.136;39.010;2023-04-03T13:29:49;17.16;60.98
65396;HTU21D;52004;45.136;39.010;2023-04-03T13:32:18;17.13;61.03
65396;HTU21D;52004;45.136;39.010;2023-04-03T13:34:45;17.10;61.07
65396;HTU21D;52004;45.136;39.010;2023-04-03T13:39:55;17.24;61.17
65396;HTU21D;52004;45.136;39.010;2023-04-03T13:42:22;17.33;60.96
65396;HTU21D;52004;45.136;39.010;2023-04-03T13:44:48;17.36;60.67
65396;HTU21D;52004;45.136;39.010;2023-04-03T13:47:17;17.28;60.52
65396;HTU21D;52004;45.136;39.010;2023-04-03T13:49:58;17.16;60.56
65396;HTU21D;52004;45.136;39.010;2023-04-03T13:52:28;17.01;60.67
65396;HTU21D;52004;45.136;39.010;2023-04-03T13:54:56;16.88;60.76
65396;HTU21D;52004;45.136;39.010;2023-04-03T13:57:23;16.77;60.83
65396;HTU21D;52004;45.136;39.010;2023-04-03T13:59:49;16.69;60.88
65396;HTU21D;52004;45.136;39.010;2023-04-03T14:02:20;16.62;60.96
65396;HTU21D;52004;45.136;39.010;2023-04-03T14:04:52;16.60;61.07
65396;HTU21D;52004;45.136;39.010;2023-04-03T14:07:21;16.64;61.24
65396;HTU21D;52004;45.136;39.010;2023-04-03T14:09:48;16.75;61.14
65396;HTU21D;52004;45.136;39.010;2023-04-03T14:12:15;16.84;61.09
65396;HTU21D;52004;45.136;39.010;2023-04-03T14:14:42;16.92;61.03
65396;HTU21D;52004;45.136;39.010;2023-04-03T14:17:16;16.95;60.92
65396;HTU21D;52004;45.136;39.010;2023-04-03T14:19:42;16.92;60.90
65396;HTU21D;52004;45.136;39.010;2023-04-03T14:22:16;16.93;61.00
65396;HTU21D;52004;45.136;39.010;2023-04-03T14:24:43;16.94;61.08
65396;HTU21D;52004;45.136;39.010;2023-04-03T14:27:12;16.95;61.06
65396;HTU21D;52004;45.136;39.010;2023-04-03T14:29:40;16.88;61.02
65396;HTU21D;52004;45.136;39.010;2023-04-03T14:32:06;16.79;61.01
65396;HTU21D;52004;45.136;39.010;2023-04-03T14:34:32;16.63;61.06
65396;HTU21D;52004;45.136;39.010;2023-04-03T14:36:58;16.43;61.16
65396;HTU21D;52004;45.136;39.010;2023-04-03T14:39:24;16.27;61.28
65396;HTU21D;52004;45.136;39.010;2023-04-03T14:41:50;16.13;61.36
65396;HTU21D;52004;45.136;39.010;2023-04-03T14:44:16;15.99;61.46
65396;HTU21D;52004;45.136;39.010;2023-04-03T14:46:42;15.90;61.54
65396;HTU21D;52004;45.136;39.010;2023-04-03T14:49:15;15.82;61.60
65396;HTU21D;52004;45.136;39.010;2023-04-03T14:51:43;15.77;61.60
65396;HTU21D;52004;45.136;39.010;2023-04-03T14:54:12;15.75;61.62
65396;HTU21D;52004;45.136;39.010;2023-04-03T14:56:38;0.00;61.65
65396;HTU21D;52004;45.136;39.010;2023-04-03T14:59:04;15.67;61.60
65396;HTU21D;52004;45.136;39.010;2023-04-03T15:01:33;15.62;61.62
65396;HTU21D;52004;45.136;39.010;2023-04-03T15:03:59;15.57;61.64
65396;HTU21D;52004;45.136;39.010;2023-04-03T15:06:25;15.55;61.58
65396;HTU21D;52004;45.136;39.010;2023-04-03T15:08:51;15.51;61.57
65396;HTU21D;52004;45.136;39.010;2023-04-03T15:11:17;0.00;61.56
65396;HTU21D;52004;45.136;39.010;2023-04-03T15:13:43;15.44;61.56
65396;HTU21D;52004;45.136;39.010;2023-04-03T15:16:14;15.40;61.56
65396;HTU21D;52004;45.136;39.010;2023-04-03T15:18:40;15.37;61.56
65396;HTU21D;52004;45.136;39.010;2023-04-03T15:21:06;15.31;61.56
65396;HTU21D;52004;45.136;39.010;2023-04-03T15:23:32;15.23;61.63
65396;HTU21D;52004;45.136;39.010;2023-04-03T15:25:58;15.15;61.76
65396;HTU21D;52004;45.136;39.010;2023-04-03T15:30:50;15.07;61.79
65396;HTU21D;52004;45.136;39.010;2023-04-03T15:33:16;15.01;61.86
65396;HTU21D;52004;45.136;39.010;2023-04-03T15:35:42;14.96;61.93
65396;HTU21D;52004;45.136;39.010;2023-04-03T15:38:08;14.91;62.02
65396;HTU21D;52004;45.136;39.010;2023-04-03T15:40:36;14.85;62.12
65396;HTU21D;52004;45.136;39.010;2023-04-03T15:43:02;14.83;62.08
65396;HTU21D;52004;45.136;39.010;2023-04-03T15:45:28;14.79;62.04
65396;HTU21D;52004;45.136;39.010;2023-04-03T15:47:55;14.77;62.05
65396;HTU21D;52004;45.136;39.010;2023-04-03T15:50:21;14.72;62.09
65396;HTU21D;52004;45.136;39.010;2023-04-03T15:52:50;14.69;62.18
65396;HTU21D;52004;45.136;39.010;2023-04-03T15:55:23;14.65;62.19
65396;HTU21D;52004;45.136;39.010;2023-04-03T15:57:49;14.62;62.22
65396;HTU21D;52004;45.136;39.010;2023-04-03T16:00:16;14.57;62.28
65396;HTU21D;52004;45.136;39.010;2023-04-03T16:02:42;14.55;62.34
65396;HTU21D;52004;45.136;39.010;2023-04-03T16:05:09;14.53;62.31
65396;HTU21D;52004;45.136;39.010;2023-04-03T16:07:36;14.51;62.35
65396;HTU21D;52004;45.136;39.010;2023-04-03T16:10:02;14.49;62.34
65396;HTU21D;52004;45.136;39.010;2023-04-03T16:12:28;14.44;62.37
65396;HTU21D;52004;45.136;39.010;2023-04-03T16:14:54;14.43;62.40
65396;HTU21D;52004;45.136;39.010;2023-04-03T16:17:20;0.00;62.34
65396;HTU21D;52004;45.136;39.010;2023-04-03T16:19:46;14.38;62.35
65396;HTU21D;52004;45.136;39.010;2023-04-03T16:22:12;14.34;62.44
65396;HTU21D;52004;45.136;39.010;2023-04-03T16:24:38;14.30;62.52
65396;HTU21D;52004;45.136;39.010;2023-04-03T16:27:04;14.27;62.60
65396;HTU21D;52004;45.136;39.010;2023-04-03T16:29:30;0.00;62.61
65396;HTU21D;52004;45.136;39.010;2023-04-03T16:31:57;14.23;62.59
65396;HTU21D;52004;45.136;39.010;2023-04-03T16:34:23;14.23;62.56
65396;HTU21D;52004;45.136;39.010;2023-04-03T16:36:51;14.20;62.56
65396;HTU21D;52004;45.136;39.010;2023-04-03T16:39:20;14.19;62.57
65396;HTU21D;52004;45.136;39.010;2023-04-03T16:41:46;14.17;62.58
65396;HTU21D;52004;45.136;39.010;2023-04-03T16:44:12;14.14;62.63
65396;HTU21D;52004;45.136;39.010;2023-04-03T16:46:38;14.13;62.61
65396;HTU21D;52004;45.136;39.010;2023-04-03T16:49:03;0.00;62.60
65396;HTU21D;52004;45.136;39.010;2023-04-03T16:51:29;14.10;62.61
65396;HTU21D;52004;45.136;39.010;2023-04-03T16:53:57;14.08;62.69
65396;HTU21D;52004;45.136;39.010;2023-04-03T16:56:23;14.06;62.72
65396;HTU21D;52004;45.136;39.010;2023-04-03T16:58:49;0.00;62.69
65396;HTU21D;52004;45.136;39.010;2023-04-03T17:01:16;14.05;62.66
65396;HTU21D;52004;45.136;39.010;2023-04-03T17:03:43;14.03;62.63
65396;HTU21D;52004;45.136;39.010;2023-04-03T17:06:09;14.01;62.62
65396;HTU21D;52004;45.136;39.010;2023-04-03T17:08:41;14.00;62.65